sensor_id;sensor_type;location;lat;lon;timestamp;P1;durP1;ratioP1;P2;durP2;ratioP2
54897;SDS011;40800;52.704;6.398;2023-07-24T00:00:20;29.25;;;27.15;;
54897;SDS011;40800;52.704;6.398;2023-07-24T00:02:46;29.55;;;27.35;;
54897;SDS011;40800;52.704;6.398;2023-07-24T00:05:11;29.83;;;27.63;;
54897;SDS011;40800;52.704;6.398;2023-07-24T00:07:37;29.98;;;27.77;;
54897;SDS011;40800;52.704;6.398;2023-07-24T00:10:03;29.90;;;27.70;;
54897;SDS011;40800;52.704;6.398;2023-07-24T00:12:29;30.33;;;28.17;;
54897;SDS011;40800;52.704;6.398;2023-07-24T00:14:54;30.88;;;28.33;;
54897;SDS011;40800;52.704;6.398;2023-07-24T00:17:20;30.05;;;27.85;;
54897;SDS011;40800;52.704;6.398;2023-07-24T00:19:46;31.23;;;28.98;;
54897;SDS011;40800;52.704;6.398;2023-07-24T00:22:12;29.05;;;27.10;;
54897;SDS011;40800;52.704;6.398;2023-07-24T00:24:37;33.13;;;30.35;;
54897;SDS011;40800;52.704;6.398;2023-07-24T00:27:03;34.40;;;31.75;;
54897;SDS011;40800;52.704;6.398;2023-07-24T00:29:29;34.63;;;31.88;;
54897;SDS011;40800;52.704;6.398;2023-07-24T00:31:54;34.75;;;31.98;;
54897;SDS011;40800;52.704;6.398;2023-07-24T00:34:20;36.70;;;33.80;;
54897;SDS011;40800;52.704;6.398;2023-07-24T00:36:45;34.45;;;31.75;;
54897;SDS011;40800;52.704;6.398;2023-07-24T00:39:11;35.65;;;32.55;;
54897;SDS011;40800;52.704;6.398;2023-07-24T00:41:39;34.45;;;31.75;;
54897;SDS011;40800;52.704;6.398;2023-07-24T00:44:04;34.25;;;31.58;;
54897;SDS011;40800;52.704;6.398;2023-07-24T00:46:30;35.83;;;32.92;;
54897;SDS011;40800;52.704;6.398;2023-07-24T00:48:57;34.90;;;31.88;;
54897;SDS011;40800;52.704;6.398;2023-07-24T00:53:51;31.73;;;29.42;;
54897;SDS011;40800;52.704;6.398;2023-07-24T00:56:16;30.70;;;28.27;;
54897;SDS011;40800;52.704;6.398;2023-07-24T00:58:42;29.23;;;27.13;;
54897;SDS011;40800;52.704;6.398;2023-07-24T01:01:08;31.98;;;29.50;;
54897;SDS011;40800;52.704;6.398;2023-07-24T01:03:35;31.73;;;29.15;;
54897;SDS011;40800;52.704;6.398;2023-07-24T01:06:01;29.38;;;27.15;;
54897;SDS011;40800;52.704;6.398;2023-07-24T01:08:27;29.20;;;27.08;;
54897;SDS011;40800;52.704;6.398;2023-07-24T01:10:54;29.50;;;27.20;;
54897;SDS011;40800;52.704;6.398;2023-07-24T01:13:28;29.25;;;26.95;;
54897;SDS011;40800;52.704;6.398;2023-07-24T01:16:00;30.65;;;28.25;;
54897;SDS011;40800;52.704;6.398;2023-07-24T01:18:33;29.30;;;27.02;;
54897;SDS011;40800;52.704;6.398;2023-07-24T01:21:02;28.48;;;26.10;;
54897;SDS011;40800;52.704;6.398;2023-07-24T01:26:01;28.90;;;26.60;;
54897;SDS011;40800;52.704;6.398;2023-07-24T01:28:29;30.58;;;28.10;;
54897;SDS011;40800;52.704;6.398;2023-07-24T01:30:55;29.10;;;26.90;;
54897;SDS011;40800;52.704;6.398;2023-07-24T01:33:22;27.27;;;25.13;;
54897;SDS011;40800;52.704;6.398;2023-07-24T01:35:49;27.38;;;25.38;;
54897;SDS011;40800;52.704;6.398;2023-07-24T01:38:18;27.05;;;25.10;;
54897;SDS011;40800;52.704;6.398;2023-07-24T01:40:44;27.73;;;25.52;;
54897;SDS011;40800;52.704;6.398;2023-07-24T01:43:10;28.37;;;26.17;;
54897;SDS011;40800;52.704;6.398;2023-07-24T01:45:36;29.75;;;27.35;;
54897;SDS011;40800;52.704;6.398;2023-07-24T01:48:03;30.35;;;27.90;;
54897;SDS011;40800;52.704;6.398;2023-07-24T01:50:29;30.88;;;28.38;;
54897;SDS011;40800;52.704;6.398;2023-07-24T01:52:54;30.38;;;27.75;;
54897;SDS011;40800;52.704;6.398;2023-07-24T01:55:20;31.45;;;28.95;;
54897;SDS011;40800;52.704;6.398;2023-07-24T01:57:46;28.38;;;26.10;;
54897;SDS011;40800;52.704;6.398;2023-07-24T02:00:11;25.70;;;23.70;;
54897;SDS011;40800;52.704;6.398;2023-07-24T02:02:37;26.80;;;24.65;;
54897;SDS011;40800;52.704;6.398;2023-07-24T02:05:03;25.38;;;23.35;;
54897;SDS011;40800;52.704;6.398;2023-07-24T02:07:29;26.07;;;24.13;;
54897;SDS011;40800;52.704;6.398;2023-07-24T02:09:54;26.02;;;23.92;;
54897;SDS011;40800;52.704;6.398;2023-07-24T02:12:20;25.70;;;23.90;;
54897;SDS011;40800;52.704;6.398;2023-07-24T02:14:45;25.48;;;23.67;;
54897;SDS011;40800;52.704;6.398;2023-07-24T02:17:14;24.95;;;23.15;;
54897;SDS011;40800;52.704;6.398;2023-07-24T02:19:40;25.17;;;23.17;;
54897;SDS011;40800;52.704;6.398;2023-07-24T02:22:06;25.38;;;23.55;;
54897;SDS011;40800;52.704;6.398;2023-07-24T02:24:32;25.33;;;23.40;;
54897;SDS011;40800;52.704;6.398;2023-07-24T02:26:57;25.63;;;23.73;;
54897;SDS011;40800;52.704;6.398;2023-07-24T02:29:23;25.65;;;23.70;;
54897;SDS011;40800;52.704;6.398;2023-07-24T02:31:49;24.70;;;22.83;;
54897;SDS011;40800;52.704;6.398;2023-07-24T02:34:15;25.58;;;23.73;;
54897;SDS011;40800;52.704;6.398;2023-07-24T02:36:41;26.35;;;24.38;;
54897;SDS011;40800;52.704;6.398;2023-07-24T02:39:07;26.40;;;24.40;;
54897;SDS011;40800;52.704;6.398;2023-07-24T02:41:32;27.80;;;25.63;;
54897;SDS011;40800;52.704;6.398;2023-07-24T02:43:58;25.95;;;24.13;;
54897;SDS011;40800;52.704;6.398;2023-07-24T02:46:23;26.40;;;24.35;;
54897;SDS011;40800;52.704;6.398;2023-07-24T02:48:50;27.58;;;25.55;;
54897;SDS011;40800;52.704;6.398;2023-07-24T02:51:17;28.00;;;25.67;;
54897;SDS011;40800;52.704;6.398;2023-07-24T02:53:43;28.52;;;26.17;;
54897;SDS011;40800;52.704;6.398;2023-07-24T02:56:09;28.83;;;26.60;;
54897;SDS011;40800;52.704;6.398;2023-07-24T02:58:34;27.80;;;25.70;;
54897;SDS011;40800;52.704;6.398;2023-07-24T03:01:06;27.80;;;25.70;;
54897;SDS011;40800;52.704;6.398;2023-07-24T03:03:35;26.45;;;24.35;;
54897;SDS011;40800;52.704;6.398;2023-07-24T03:06:01;27.15;;;25.15;;
54897;SDS011;40800;52.704;6.398;2023-07-24T03:08:26;27.33;;;25.23;;
54897;SDS011;40800;52.704;6.398;2023-07-24T03:10:52;26.95;;;25.05;;
54897;SDS011;40800;52.704;6.398;2023-07-24T03:13:18;25.70;;;23.83;;
54897;SDS011;40800;52.704;6.398;2023-07-24T03:15:43;26.52;;;24.55;;
54897;SDS011;40800;52.704;6.398;2023-07-24T03:18:16;27.17;;;25.17;;
54897;SDS011;40800;52.704;6.398;2023-07-24T03:20:41;26.55;;;24.55;;
54897;SDS011;40800;52.704;6.398;2023-07-24T03:23:07;28.58;;;26.40;;
54897;SDS011;40800;52.704;6.398;2023-07-24T03:25:32;28.88;;;26.67;;
54897;SDS011;40800;52.704;6.398;2023-07-24T03:28:00;27.33;;;25.23;;
54897;SDS011;40800;52.704;6.398;2023-07-24T03:30:26;26.13;;;24.27;;
54897;SDS011;40800;52.704;6.398;2023-07-24T03:32:51;26.73;;;24.83;;
54897;SDS011;40800;52.704;6.398;2023-07-24T03:35:17;27.05;;;25.05;;
54897;SDS011;40800;52.704;6.398;2023-07-24T03:37:43;26.85;;;24.85;;
54897;SDS011;40800;52.704;6.398;2023-07-24T03:40:08;26.05;;;24.17;;
54897;SDS011;40800;52.704;6.398;2023-07-24T03:42:34;27.30;;;25.20;;
54897;SDS011;40800;52.704;6.398;2023-07-24T03:45:00;27.38;;;25.45;;
54897;SDS011;40800;52.704;6.398;2023-07-24T03:47:25;26.77;;;24.88;;
54897;SDS011;40800;52.704;6.398;2023-07-24T03:49:51;27.33;;;25.33;;
54897;SDS011;40800;52.704;6.398;2023-07-24T03:52:17;28.35;;;26.15;;
54897;SDS011;40800;52.704;6.398;2023-07-24T03:54:42;28.27;;;26.13;;
54897;SDS011;40800;52.704;6.398;2023-07-24T03:57:08;27.90;;;25.80;;
54897;SDS011;40800;52.704;6.398;2023-07-24T03:59:33;28.00;;;25.92;;
54897;SDS011;40800;52.704;6.398;2023-07-24T04:01:59;27.90;;;25.85;;
54897;SDS011;40800;52.704;6.398;2023-07-24T04:04:25;28.02;;;26.00;;
54897;SDS011;40800;52.704;6.398;2023-07-24T04:06:50;28.25;;;26.23;;
54897;SDS011;40800;52.704;6.398;2023-07-24T04:09:16;28.30;;;26.20;;
54897;SDS011;40800;52.704;6.398;2023-07-24T04:11:42;29.15;;;26.92;;
54897;SDS011;40800;52.704;6.398;2023-07-24T04:14:08;29.60;;;27.30;;
54897;SDS011;40800;52.704;6.398;2023-07-24T04:16:34;30.45;;;28.02;;
54897;SDS011;40800;52.704;6.398;2023-07-24T04:19:00;30.40;;;28.00;;
54897;SDS011;40800;52.704;6.398;2023-07-24T04:21:25;30.17;;;27.85;;
54897;SDS011;40800;52.704;6.398;2023-07-24T04:23:51;31.63;;;29.23;;
54897;SDS011;40800;52.704;6.398;2023-07-24T04:26:16;33.13;;;30.60;;
54897;SDS011;40800;52.704;6.398;2023-07-24T04:28:42;33.20;;;30.40;;
54897;SDS011;40800;52.704;6.398;2023-07-24T04:31:08;34.50;;;31.60;;
54897;SDS011;40800;52.704;6.398;2023-07-24T04:33:33;33.17;;;30.60;;
54897;SDS011;40800;52.704;6.398;2023-07-24T04:35:59;32.60;;;30.00;;
54897;SDS011;40800;52.704;6.398;2023-07-24T04:38:25;36.53;;;33.75;;
54897;SDS011;40800;52.704;6.398;2023-07-24T04:40:50;30.45;;;28.15;;
54897;SDS011;40800;52.704;6.398;2023-07-24T04:43:16;30.65;;;28.23;;
54897;SDS011;40800;52.704;6.398;2023-07-24T04:45:42;30.55;;;28.25;;
54897;SDS011;40800;52.704;6.398;2023-07-24T04:48:07;29.88;;;27.50;;
54897;SDS011;40800;52.704;6.398;2023-07-24T04:50:33;28.88;;;26.38;;
54897;SDS011;40800;52.704;6.398;2023-07-24T04:52:58;28.23;;;26.02;;
54897;SDS011;40800;52.704;6.398;2023-07-24T04:55:24;30.80;;;28.17;;
54897;SDS011;40800;52.704;6.398;2023-07-24T04:57:50;36.40;;;33.22;;
54897;SDS011;40800;52.704;6.398;2023-07-24T05:00:16;38.05;;;34.95;;
54897;SDS011;40800;52.704;6.398;2023-07-24T05:02:41;31.05;;;28.65;;
54897;SDS011;40800;52.704;6.398;2023-07-24T05:05:07;29.02;;;26.83;;
54897;SDS011;40800;52.704;6.398;2023-07-24T05:07:33;30.57;;;28.10;;
54897;SDS011;40800;52.704;6.398;2023-07-24T05:09:59;28.83;;;26.63;;
54897;SDS011;40800;52.704;6.398;2023-07-24T05:12:24;29.27;;;26.75;;
54897;SDS011;40800;52.704;6.398;2023-07-24T05:14:50;27.92;;;25.90;;
54897;SDS011;40800;52.704;6.398;2023-07-24T05:17:16;28.58;;;26.17;;
54897;SDS011;40800;52.704;6.398;2023-07-24T05:19:41;28.00;;;25.95;;
54897;SDS011;40800;52.704;6.398;2023-07-24T05:22:07;28.23;;;26.05;;
54897;SDS011;40800;52.704;6.398;2023-07-24T05:24:33;29.13;;;26.92;;
54897;SDS011;40800;52.704;6.398;2023-07-24T05:26:59;27.42;;;25.40;;
54897;SDS011;40800;52.704;6.398;2023-07-24T05:29:24;28.20;;;26.05;;
54897;SDS011;40800;52.704;6.398;2023-07-24T05:31:50;27.38;;;25.38;;
54897;SDS011;40800;52.704;6.398;2023-07-24T05:34:15;28.17;;;25.98;;
54897;SDS011;40800;52.704;6.398;2023-07-24T05:36:41;28.88;;;26.58;;
54897;SDS011;40800;52.704;6.398;2023-07-24T05:39:06;28.25;;;26.13;;
54897;SDS011;40800;52.704;6.398;2023-07-24T05:41:32;30.05;;;27.73;;
54897;SDS011;40800;52.704;6.398;2023-07-24T05:43:58;29.65;;;27.25;;
54897;SDS011;40800;52.704;6.398;2023-07-24T05:46:23;29.35;;;27.15;;
54897;SDS011;40800;52.704;6.398;2023-07-24T05:48:49;28.33;;;26.27;;
54897;SDS011;40800;52.704;6.398;2023-07-24T05:51:14;28.65;;;26.52;;
54897;SDS011;40800;52.704;6.398;2023-07-24T05:53:40;28.02;;;25.83;;
54897;SDS011;40800;52.704;6.398;2023-07-24T05:56:05;28.58;;;26.02;;
54897;SDS011;40800;52.704;6.398;2023-07-24T05:58:31;28.20;;;26.00;;
54897;SDS011;40800;52.704;6.398;2023-07-24T06:00:57;28.05;;;26.05;;
54897;SDS011;40800;52.704;6.398;2023-07-24T06:03:23;28.10;;;26.00;;
54897;SDS011;40800;52.704;6.398;2023-07-24T06:05:52;27.60;;;25.60;;
54897;SDS011;40800;52.704;6.398;2023-07-24T06:08:19;28.77;;;26.50;;
54897;SDS011;40800;52.704;6.398;2023-07-24T06:10:48;28.03;;;25.93;;
54897;SDS011;40800;52.704;6.398;2023-07-24T06:13:15;28.80;;;26.70;;
54897;SDS011;40800;52.704;6.398;2023-07-24T06:15:41;27.77;;;25.58;;
54897;SDS011;40800;52.704;6.398;2023-07-24T06:18:06;28.63;;;26.33;;
54897;SDS011;40800;52.704;6.398;2023-07-24T06:20:32;28.15;;;26.05;;
54897;SDS011;40800;52.704;6.398;2023-07-24T06:22:58;29.20;;;26.88;;
54897;SDS011;40800;52.704;6.398;2023-07-24T06:25:23;27.98;;;25.77;;
54897;SDS011;40800;52.704;6.398;2023-07-24T06:27:49;27.02;;;25.08;;
54897;SDS011;40800;52.704;6.398;2023-07-24T06:30:14;26.90;;;24.90;;
54897;SDS011;40800;52.704;6.398;2023-07-24T06:32:40;26.38;;;24.48;;
54897;SDS011;40800;52.704;6.398;2023-07-24T06:35:06;26.75;;;24.75;;
54897;SDS011;40800;52.704;6.398;2023-07-24T06:37:31;27.42;;;25.35;;
54897;SDS011;40800;52.704;6.398;2023-07-24T06:39:57;27.40;;;25.48;;
54897;SDS011;40800;52.704;6.398;2023-07-24T06:42:23;27.50;;;25.40;;
54897;SDS011;40800;52.704;6.398;2023-07-24T06:44:48;26.52;;;24.63;;
54897;SDS011;40800;52.704;6.398;2023-07-24T06:47:14;27.45;;;25.25;;
54897;SDS011;40800;52.704;6.398;2023-07-24T06:49:39;26.73;;;24.73;;
54897;SDS011;40800;52.704;6.398;2023-07-24T06:52:05;27.98;;;25.70;;
54897;SDS011;40800;52.704;6.398;2023-07-24T06:54:31;26.85;;;24.73;;
54897;SDS011;40800;52.704;6.398;2023-07-24T06:56:57;27.17;;;25.05;;
54897;SDS011;40800;52.704;6.398;2023-07-24T06:59:23;25.23;;;23.27;;
54897;SDS011;40800;52.704;6.398;2023-07-24T07:01:48;27.03;;;24.80;;
54897;SDS011;40800;52.704;6.398;2023-07-24T07:04:14;25.58;;;23.70;;
54897;SDS011;40800;52.704;6.398;2023-07-24T07:06:41;25.38;;;23.52;;
54897;SDS011;40800;52.704;6.398;2023-07-24T07:09:06;26.30;;;24.10;;
54897;SDS011;40800;52.704;6.398;2023-07-24T07:11:32;25.80;;;23.75;;
54897;SDS011;40800;52.704;6.398;2023-07-24T07:13:57;24.67;;;22.65;;
54897;SDS011;40800;52.704;6.398;2023-07-24T07:16:23;25.70;;;23.38;;
54897;SDS011;40800;52.704;6.398;2023-07-24T07:18:48;26.33;;;24.00;;
54897;SDS011;40800;52.704;6.398;2023-07-24T07:21:14;25.70;;;23.45;;
54897;SDS011;40800;52.704;6.398;2023-07-24T07:23:40;25.35;;;23.15;;
54897;SDS011;40800;52.704;6.398;2023-07-24T07:26:05;25.88;;;23.60;;
54897;SDS011;40800;52.704;6.398;2023-07-24T07:28:31;25.60;;;23.42;;
54897;SDS011;40800;52.704;6.398;2023-07-24T07:30:56;24.80;;;22.67;;
54897;SDS011;40800;52.704;6.398;2023-07-24T07:33:22;24.33;;;22.17;;
54897;SDS011;40800;52.704;6.398;2023-07-24T07:35:48;25.57;;;23.30;;
54897;SDS011;40800;52.704;6.398;2023-07-24T07:38:14;23.83;;;21.83;;
54897;SDS011;40800;52.704;6.398;2023-07-24T07:40:39;23.48;;;21.38;;
54897;SDS011;40800;52.704;6.398;2023-07-24T07:43:05;24.17;;;22.13;;
54897;SDS011;40800;52.704;6.398;2023-07-24T07:45:31;22.00;;;20.08;;
54897;SDS011;40800;52.704;6.398;2023-07-24T07:47:56;21.65;;;19.77;;
54897;SDS011;40800;52.704;6.398;2023-07-24T07:50:22;23.42;;;20.92;;
54897;SDS011;40800;52.704;6.398;2023-07-24T07:52:50;20.63;;;19.00;;
54897;SDS011;40800;52.704;6.398;2023-07-24T07:55:17;20.83;;;18.95;;
54897;SDS011;40800;52.704;6.398;2023-07-24T07:57:43;21.60;;;19.67;;
54897;SDS011;40800;52.704;6.398;2023-07-24T08:00:09;21.40;;;19.50;;
54897;SDS011;40800;52.704;6.398;2023-07-24T08:02:35;20.95;;;19.35;;
54897;SDS011;40800;52.704;6.398;2023-07-24T08:05:04;22.00;;;20.05;;
54897;SDS011;40800;52.704;6.398;2023-07-24T08:07:33;21.23;;;19.33;;
54897;SDS011;40800;52.704;6.398;2023-07-24T08:09:59;21.05;;;19.35;;
54897;SDS011;40800;52.704;6.398;2023-07-24T08:12:25;21.17;;;19.33;;
54897;SDS011;40800;52.704;6.398;2023-07-24T08:14:50;21.73;;;19.80;;
54897;SDS011;40800;52.704;6.398;2023-07-24T08:17:16;20.60;;;18.88;;
54897;SDS011;40800;52.704;6.398;2023-07-24T08:19:42;21.48;;;19.85;;
54897;SDS011;40800;52.704;6.398;2023-07-24T08:22:07;21.02;;;19.23;;
54897;SDS011;40800;52.704;6.398;2023-07-24T08:24:33;20.88;;;19.17;;
54897;SDS011;40800;52.704;6.398;2023-07-24T08:29:26;20.33;;;18.75;;
54897;SDS011;40800;52.704;6.398;2023-07-24T08:31:51;21.20;;;19.35;;
54897;SDS011;40800;52.704;6.398;2023-07-24T08:34:17;20.52;;;18.83;;
54897;SDS011;40800;52.704;6.398;2023-07-24T08:36:43;20.30;;;18.80;;
54897;SDS011;40800;52.704;6.398;2023-07-24T08:39:08;20.08;;;18.30;;
54897;SDS011;40800;52.704;6.398;2023-07-24T08:41:34;19.73;;;17.92;;
54897;SDS011;40800;52.704;6.398;2023-07-24T08:44:02;19.55;;;17.95;;
54897;SDS011;40800;52.704;6.398;2023-07-24T08:46:35;20.42;;;18.45;;
54897;SDS011;40800;52.704;6.398;2023-07-24T08:49:02;20.70;;;18.85;;
54897;SDS011;40800;52.704;6.398;2023-07-24T08:51:28;20.02;;;18.08;;
54897;SDS011;40800;52.704;6.398;2023-07-24T08:53:56;19.73;;;18.08;;
54897;SDS011;40800;52.704;6.398;2023-07-24T08:56:22;20.23;;;18.33;;
54897;SDS011;40800;52.704;6.398;2023-07-24T08:58:48;19.27;;;17.58;;
54897;SDS011;40800;52.704;6.398;2023-07-24T09:01:13;19.73;;;17.83;;
54897;SDS011;40800;52.704;6.398;2023-07-24T09:03:39;21.67;;;19.45;;
54897;SDS011;40800;52.704;6.398;2023-07-24T09:06:05;21.20;;;19.23;;
54897;SDS011;40800;52.704;6.398;2023-07-24T09:08:33;20.33;;;18.45;;
54897;SDS011;40800;52.704;6.398;2023-07-24T09:11:00;19.73;;;17.75;;
54897;SDS011;40800;52.704;6.398;2023-07-24T09:15:53;20.30;;;18.02;;
54897;SDS011;40800;52.704;6.398;2023-07-24T09:18:19;19.73;;;17.95;;
54897;SDS011;40800;52.704;6.398;2023-07-24T09:20:45;18.27;;;16.53;;
54897;SDS011;40800;52.704;6.398;2023-07-24T09:23:12;18.92;;;17.08;;
54897;SDS011;40800;52.704;6.398;2023-07-24T09:25:39;18.67;;;17.05;;
54897;SDS011;40800;52.704;6.398;2023-07-24T09:28:12;19.27;;;17.13;;
54897;SDS011;40800;52.704;6.398;2023-07-24T09:30:39;18.33;;;16.73;;
54897;SDS011;40800;52.704;6.398;2023-07-24T09:33:06;17.25;;;15.80;;
54897;SDS011;40800;52.704;6.398;2023-07-24T09:35:32;17.37;;;15.77;;
54897;SDS011;40800;52.704;6.398;2023-07-24T09:38:01;17.35;;;15.60;;
54897;SDS011;40800;52.704;6.398;2023-07-24T09:40:28;17.98;;;16.25;;
54897;SDS011;40800;52.704;6.398;2023-07-24T09:43:15;17.95;;;16.23;;
54897;SDS011;40800;52.704;6.398;2023-07-24T09:45:42;18.17;;;16.33;;
54897;SDS011;40800;52.704;6.398;2023-07-24T09:48:09;17.40;;;15.82;;
54897;SDS011;40800;52.704;6.398;2023-07-24T09:50:39;16.77;;;15.15;;
54897;SDS011;40800;52.704;6.398;2023-07-24T09:53:06;18.20;;;16.33;;
54897;SDS011;40800;52.704;6.398;2023-07-24T09:55:47;15.80;;;14.30;;
54897;SDS011;40800;52.704;6.398;2023-07-24T09:58:20;15.30;;;13.98;;
54897;SDS011;40800;52.704;6.398;2023-07-24T10:00:47;14.50;;;13.23;;
54897;SDS011;40800;52.704;6.398;2023-07-24T10:03:14;15.38;;;13.90;;
54897;SDS011;40800;52.704;6.398;2023-07-24T10:08:08;14.88;;;13.38;;
54897;SDS011;40800;52.704;6.398;2023-07-24T10:10:39;13.88;;;12.65;;
54897;SDS011;40800;52.704;6.398;2023-07-24T10:13:05;13.73;;;12.37;;
54897;SDS011;40800;52.704;6.398;2023-07-24T10:15:35;13.45;;;12.25;;
54897;SDS011;40800;52.704;6.398;2023-07-24T10:18:03;14.75;;;13.25;;
54897;SDS011;40800;52.704;6.398;2023-07-24T10:20:34;14.45;;;12.93;;
54897;SDS011;40800;52.704;6.398;2023-07-24T10:23:01;13.00;;;11.80;;
54897;SDS011;40800;52.704;6.398;2023-07-24T10:25:28;13.18;;;12.00;;
54897;SDS011;40800;52.704;6.398;2023-07-24T10:28:00;12.85;;;11.75;;
54897;SDS011;40800;52.704;6.398;2023-07-24T10:30:36;13.68;;;12.38;;
54897;SDS011;40800;52.704;6.398;2023-07-24T10:33:18;12.35;;;11.30;;
54897;SDS011;40800;52.704;6.398;2023-07-24T10:35:48;13.30;;;11.93;;
54897;SDS011;40800;52.704;6.398;2023-07-24T10:38:18;12.93;;;11.65;;
54897;SDS011;40800;52.704;6.398;2023-07-24T10:40:44;12.60;;;11.50;;
54897;SDS011;40800;52.704;6.398;2023-07-24T10:43:12;13.35;;;12.05;;
54897;SDS011;40800;52.704;6.398;2023-07-24T10:48:18;13.55;;;12.45;;
54897;SDS011;40800;52.704;6.398;2023-07-24T10:50:45;11.27;;;10.27;;
54897;SDS011;40800;52.704;6.398;2023-07-24T10:53:13;11.52;;;10.52;;
54897;SDS011;40800;52.704;6.398;2023-07-24T10:55:41;11.60;;;10.48;;
54897;SDS011;40800;52.704;6.398;2023-07-24T10:58:08;11.15;;;10.10;;
54897;SDS011;40800;52.704;6.398;2023-07-24T11:00:34;12.50;;;9.90;;
54897;SDS011;40800;52.704;6.398;2023-07-24T11:03:00;10.13;;;9.13;;
54897;SDS011;40800;52.704;6.398;2023-07-24T11:05:26;11.13;;;8.65;;
54897;SDS011;40800;52.704;6.398;2023-07-24T11:07:52;11.23;;;8.13;;
54897;SDS011;40800;52.704;6.398;2023-07-24T11:10:18;8.67;;;7.70;;
54897;SDS011;40800;52.704;6.398;2023-07-24T11:12:45;11.63;;;7.40;;
54897;SDS011;40800;52.704;6.398;2023-07-24T11:15:11;12.13;;;7.53;;
54897;SDS011;40800;52.704;6.398;2023-07-24T11:17:38;12.00;;;8.07;;
54897;SDS011;40800;52.704;6.398;2023-07-24T11:20:12;12.52;;;8.27;;
54897;SDS011;40800;52.704;6.398;2023-07-24T11:22:40;13.20;;;8.73;;
54897;SDS011;40800;52.704;6.398;2023-07-24T11:25:08;10.93;;;8.20;;
54897;SDS011;40800;52.704;6.398;2023-07-24T11:27:38;8.60;;;7.60;;
54897;SDS011;40800;52.704;6.398;2023-07-24T11:30:09;10.43;;;7.47;;
54897;SDS011;40800;52.704;6.398;2023-07-24T11:32:37;13.48;;;7.88;;
54897;SDS011;40800;52.704;6.398;2023-07-24T11:35:07;9.90;;;7.35;;
54897;SDS011;40800;52.704;6.398;2023-07-24T11:37:34;10.90;;;7.65;;
54897;SDS011;40800;52.704;6.398;2023-07-24T11:40:00;10.95;;;8.15;;
54897;SDS011;40800;52.704;6.398;2023-07-24T11:42:30;9.27;;;7.82;;
54897;SDS011;40800;52.704;6.398;2023-07-24T11:44:55;12.15;;;8.55;;
54897;SDS011;40800;52.704;6.398;2023-07-24T11:47:25;10.40;;;7.40;;
54897;SDS011;40800;52.704;6.398;2023-07-24T11:50:00;10.82;;;7.90;;
54897;SDS011;40800;52.704;6.398;2023-07-24T11:52:36;9.55;;;7.53;;
54897;SDS011;40800;52.704;6.398;2023-07-24T11:55:13;11.52;;;7.85;;
54897;SDS011;40800;52.704;6.398;2023-07-24T11:57:40;10.80;;;8.52;;
54897;SDS011;40800;52.704;6.398;2023-07-24T12:00:16;9.93;;;7.83;;
54897;SDS011;40800;52.704;6.398;2023-07-24T12:02:44;9.07;;;8.18;;
54897;SDS011;40800;52.704;6.398;2023-07-24T12:05:09;8.27;;;6.30;;
54897;SDS011;40800;52.704;6.398;2023-07-24T12:07:36;10.50;;;6.57;;
54897;SDS011;40800;52.704;6.398;2023-07-24T12:10:02;9.43;;;6.80;;
54897;SDS011;40800;52.704;6.398;2023-07-24T12:12:47;10.20;;;6.60;;
54897;SDS011;40800;52.704;6.398;2023-07-24T12:15:13;10.00;;;6.70;;
54897;SDS011;40800;52.704;6.398;2023-07-24T12:17:40;10.40;;;7.32;;
54897;SDS011;40800;52.704;6.398;2023-07-24T12:20:06;9.63;;;7.88;;
54897;SDS011;40800;52.704;6.398;2023-07-24T12:22:34;9.02;;;6.78;;
54897;SDS011;40800;52.704;6.398;2023-07-24T12:25:01;10.90;;;7.13;;
54897;SDS011;40800;52.704;6.398;2023-07-24T12:27:27;20.73;;;6.95;;
54897;SDS011;40800;52.704;6.398;2023-07-24T12:29:53;16.43;;;9.47;;
54897;SDS011;40800;52.704;6.398;2023-07-24T12:32:19;10.00;;;7.63;;
54897;SDS011;40800;52.704;6.398;2023-07-24T12:34:48;18.58;;;8.25;;
54897;SDS011;40800;52.704;6.398;2023-07-24T12:37:15;11.32;;;7.18;;
54897;SDS011;40800;52.704;6.398;2023-07-24T12:39:41;11.63;;;7.88;;
54897;SDS011;40800;52.704;6.398;2023-07-24T12:42:07;9.63;;;8.23;;
54897;SDS011;40800;52.704;6.398;2023-07-24T12:44:33;17.47;;;8.90;;
54897;SDS011;40800;52.704;6.398;2023-07-24T12:46:58;12.00;;;8.20;;
54897;SDS011;40800;52.704;6.398;2023-07-24T12:49:24;11.83;;;8.30;;
54897;SDS011;40800;52.704;6.398;2023-07-24T12:51:50;10.50;;;8.20;;
54897;SDS011;40800;52.704;6.398;2023-07-24T12:54:15;12.73;;;7.83;;
54897;SDS011;40800;52.704;6.398;2023-07-24T12:56:42;12.40;;;7.78;;
54897;SDS011;40800;52.704;6.398;2023-07-24T12:59:07;10.80;;;8.10;;
54897;SDS011;40800;52.704;6.398;2023-07-24T13:01:33;9.73;;;7.37;;
54897;SDS011;40800;52.704;6.398;2023-07-24T13:03:58;11.00;;;7.93;;
54897;SDS011;40800;52.704;6.398;2023-07-24T13:06:24;10.70;;;7.18;;
54897;SDS011;40800;52.704;6.398;2023-07-24T13:08:50;9.48;;;7.82;;
54897;SDS011;40800;52.704;6.398;2023-07-24T13:11:15;9.07;;;7.50;;
54897;SDS011;40800;52.704;6.398;2023-07-24T13:13:41;13.07;;;7.93;;
54897;SDS011;40800;52.704;6.398;2023-07-24T13:16:07;10.57;;;7.53;;
54897;SDS011;40800;52.704;6.398;2023-07-24T13:18:32;12.48;;;9.07;;
54897;SDS011;40800;52.704;6.398;2023-07-24T13:20:58;11.47;;;9.37;;
54897;SDS011;40800;52.704;6.398;2023-07-24T13:23:24;15.00;;;11.63;;
54897;SDS011;40800;52.704;6.398;2023-07-24T13:25:51;14.95;;;13.52;;
54897;SDS011;40800;52.704;6.398;2023-07-24T13:28:17;17.95;;;16.15;;
54897;SDS011;40800;52.704;6.398;2023-07-24T13:30:43;19.55;;;17.85;;
54897;SDS011;40800;52.704;6.398;2023-07-24T13:33:09;20.87;;;18.80;;
54897;SDS011;40800;52.704;6.398;2023-07-24T13:35:35;21.65;;;19.75;;
54897;SDS011;40800;52.704;6.398;2023-07-24T13:38:00;21.95;;;20.05;;
54897;SDS011;40800;52.704;6.398;2023-07-24T13:40:26;23.63;;;21.63;;
54897;SDS011;40800;52.704;6.398;2023-07-24T13:42:51;25.35;;;23.00;;
54897;SDS011;40800;52.704;6.398;2023-07-24T13:45:17;29.15;;;22.95;;
54897;SDS011;40800;52.704;6.398;2023-07-24T13:47:43;24.45;;;22.38;;
54897;SDS011;40800;52.704;6.398;2023-07-24T13:50:08;23.67;;;21.48;;
54897;SDS011;40800;52.704;6.398;2023-07-24T13:52:34;23.77;;;21.70;;
54897;SDS011;40800;52.704;6.398;2023-07-24T13:55:00;23.63;;;21.80;;
54897;SDS011;40800;52.704;6.398;2023-07-24T13:57:26;23.33;;;21.40;;
54897;SDS011;40800;52.704;6.398;2023-07-24T13:59:51;23.08;;;21.17;;
54897;SDS011;40800;52.704;6.398;2023-07-24T14:02:17;24.02;;;22.02;;
54897;SDS011;40800;52.704;6.398;2023-07-24T14:04:43;24.27;;;22.17;;
54897;SDS011;40800;52.704;6.398;2023-07-24T14:07:09;22.77;;;20.90;;
54897;SDS011;40800;52.704;6.398;2023-07-24T14:09:35;21.75;;;20.15;;
54897;SDS011;40800;52.704;6.398;2023-07-24T14:12:01;20.67;;;19.17;;
54897;SDS011;40800;52.704;6.398;2023-07-24T14:14:26;19.52;;;18.20;;
54897;SDS011;40800;52.704;6.398;2023-07-24T14:16:52;20.38;;;18.88;;
54897;SDS011;40800;52.704;6.398;2023-07-24T14:19:17;19.55;;;17.98;;
54897;SDS011;40800;52.704;6.398;2023-07-24T14:21:44;18.23;;;16.95;;
54897;SDS011;40800;52.704;6.398;2023-07-24T14:24:09;17.17;;;15.95;;
54897;SDS011;40800;52.704;6.398;2023-07-24T14:26:35;15.95;;;14.95;;
54897;SDS011;40800;52.704;6.398;2023-07-24T14:29:04;15.23;;;14.32;;
54897;SDS011;40800;52.704;6.398;2023-07-24T14:31:29;14.77;;;13.75;;
54897;SDS011;40800;52.704;6.398;2023-07-24T14:33:55;15.07;;;14.07;;